メインページ
METAR-TAF:

METAR-TAF

空港 :

成都双流国際空港

成都, 中華人民共和国

緯度: 30-40N, 経度: 104-01E, 海抜: 508m

現時点の気象観測

当レポートは42分前の02:00(UTC)に作成
変向風 2kt
気温 8°C
湿度 76%
気圧 1031 hPa
視程: 4000m
高度5000ftの雲は散在している

METAR: ZUUU 150200Z VRB01MPS 4000 BR SCT050 08/04 Q1031 NOSIG

時間: 10:42 (02:42 UTC)

予報

当レポートは6時間39分前の20:03(UTC)に作成
予報は15日の 00時(UTC)から 15日の 24時(UTC)まで有効
北/北東の風 6kt
視程: 5000m
高度5000ftの雲は散在している

TAF: ZUUU 142003Z 1500/1524 02003MPS 5000 BR SCT050 TX09/1507Z TN04/1523Z

4,000以上の空港の気象観測と天気予報(METAR報とTAF報)

利用可能な観測所は地図上に黄色い丸と赤い丸で示す。

丸の上にカーソルを重ねると観測所名を参照できる。

次にクリックすると気象観測と天気予報を参照できる。

マップの切り替え:黒色「×」印の緑ボタンをクリックして拡大、「-」印の緑ボタンをクリックして縮小、緑色の三角印をクリックして隣りの地図に切り替え


METAR-TAF: